createdAt,value
2018-11-25T00:00:34.757Z,99.90
2018-11-25T00:03:03.027Z,99.90
2018-11-25T00:05:31.198Z,99.90
2018-11-25T00:07:59.447Z,99.90
2018-11-25T00:10:27.650Z,99.90
2018-11-25T00:12:55.832Z,99.90
2018-11-25T00:15:24.052Z,99.90
2018-11-25T00:17:52.272Z,99.90
2018-11-25T00:20:20.449Z,99.90
2018-11-25T00:22:48.623Z,99.90
2018-11-25T00:25:16.796Z,99.90
2018-11-25T00:27:45.002Z,99.90
2018-11-25T00:30:15.074Z,99.90
2018-11-25T00:32:43.512Z,99.90
2018-11-25T00:35:14.554Z,99.90
2018-11-25T00:37:47.970Z,99.90
2018-11-25T00:40:14.343Z,99.90
2018-11-25T00:42:43.310Z,99.90
2018-11-25T00:45:13.422Z,99.90
2018-11-25T00:47:41.631Z,99.90
2018-11-25T00:50:12.339Z,99.90
2018-11-25T00:52:40.507Z,99.90
2018-11-25T00:55:10.209Z,99.90
2018-11-25T00:57:38.391Z,99.90
2018-11-25T01:00:11.279Z,99.90
2018-11-25T01:02:39.465Z,99.90
2018-11-25T01:05:08.390Z,99.90
2018-11-25T01:07:36.562Z,99.90
2018-11-25T01:10:12.441Z,99.90
2018-11-25T01:12:40.648Z,99.90
2018-11-25T01:15:12.932Z,99.90
2018-11-25T01:17:41.111Z,99.90
2018-11-25T01:20:13.169Z,99.90
2018-11-25T01:22:41.350Z,99.90
2018-11-25T01:25:10.313Z,99.90
2018-11-25T01:27:38.484Z,99.90
2018-11-25T01:30:09.385Z,99.90
2018-11-25T01:32:37.634Z,99.90
2018-11-25T01:35:07.022Z,99.90
2018-11-25T01:37:35.338Z,99.90
2018-11-25T01:40:04.094Z,99.90
2018-11-25T01:42:32.293Z,99.90
2018-11-25T01:45:00.446Z,99.90
2018-11-25T01:47:28.618Z,99.90
2018-11-25T01:49:56.811Z,99.90
2018-11-25T01:52:25.452Z,99.90
2018-11-25T01:54:53.626Z,99.90
2018-11-25T01:57:21.827Z,99.90
2018-11-25T01:59:50.016Z,99.90
2018-11-25T02:02:18.214Z,99.90
2018-11-25T02:04:46.495Z,99.90
2018-11-25T02:07:14.742Z,99.90
2018-11-25T02:09:42.963Z,99.90
2018-11-25T02:12:11.210Z,99.90
2018-11-25T02:14:39.450Z,99.90
2018-11-25T02:17:07.627Z,99.90
2018-11-25T02:19:35.822Z,99.90
2018-11-25T02:22:04.010Z,99.90
2018-11-25T02:24:32.217Z,99.90
2018-11-25T02:27:00.386Z,99.90
2018-11-25T02:29:28.609Z,99.90
2018-11-25T02:31:56.807Z,99.90
2018-11-25T02:34:25.024Z,99.90
2018-11-25T02:36:53.226Z,99.90
2018-11-25T02:39:21.443Z,99.90
2018-11-25T02:41:49.688Z,99.90
2018-11-25T02:44:17.888Z,99.90
2018-11-25T02:46:46.066Z,99.90
2018-11-25T02:49:14.307Z,99.90
2018-11-25T02:51:42.488Z,99.90
2018-11-25T02:54:10.666Z,99.90
2018-11-25T02:56:38.893Z,99.90
2018-11-25T02:59:07.079Z,99.90
2018-11-25T03:01:35.275Z,99.90
2018-11-25T03:04:03.515Z,99.90
2018-11-25T03:06:31.690Z,99.90
2018-11-25T03:08:59.862Z,99.90
2018-11-25T03:11:28.067Z,99.90
2018-11-25T03:13:56.252Z,99.90
2018-11-25T03:16:24.442Z,99.90
2018-11-25T03:18:52.633Z,99.90
2018-11-25T03:21:20.895Z,99.90
2018-11-25T03:23:49.083Z,99.90
2018-11-25T03:26:17.258Z,99.90
2018-11-25T03:28:45.531Z,99.90
2018-11-25T03:31:13.715Z,99.90
2018-11-25T03:33:41.898Z,99.90
2018-11-25T03:36:10.096Z,99.90
2018-11-25T03:38:38.286Z,99.90
2018-11-25T03:41:06.467Z,99.90
2018-11-25T03:43:34.638Z,99.90
2018-11-25T03:46:02.802Z,99.90
2018-11-25T03:48:30.981Z,99.90
2018-11-25T03:50:59.180Z,99.90
2018-11-25T03:53:27.353Z,99.90
2018-11-25T03:55:55.526Z,99.90
2018-11-25T03:58:23.715Z,99.90
2018-11-25T04:00:51.880Z,99.90
2018-11-25T04:03:20.069Z,99.90
2018-11-25T04:05:48.440Z,99.90
2018-11-25T04:08:16.601Z,99.90
2018-11-25T04:10:44.774Z,99.90
2018-11-25T04:13:12.949Z,99.90
2018-11-25T04:15:41.154Z,99.90
2018-11-25T04:18:09.322Z,99.90
2018-11-25T04:20:37.527Z,99.90
2018-11-25T04:23:05.976Z,99.90
2018-11-25T04:25:34.163Z,99.90
2018-11-25T04:28:02.318Z,99.90
2018-11-25T04:30:30.490Z,99.90
2018-11-25T04:32:58.656Z,99.90
2018-11-25T04:35:27.044Z,99.90
2018-11-25T04:37:55.311Z,99.90
2018-11-25T04:40:23.510Z,99.90
2018-11-25T04:42:52.006Z,99.90
2018-11-25T04:45:20.200Z,99.90
2018-11-25T04:47:48.503Z,99.90
2018-11-25T04:50:21.259Z,99.90
2018-11-25T04:52:49.751Z,99.90
2018-11-25T04:55:17.946Z,99.90
2018-11-25T04:57:49.282Z,99.90
2018-11-25T05:00:17.583Z,99.90
2018-11-25T05:02:45.714Z,99.90
2018-11-25T05:05:14.671Z,99.90
2018-11-25T05:07:42.926Z,99.90
2018-11-25T05:10:15.838Z,99.90
2018-11-25T05:12:44.253Z,99.90
2018-11-25T05:15:14.565Z,99.90
2018-11-25T05:17:42.851Z,99.90
2018-11-25T05:20:11.714Z,99.90
2018-11-25T05:22:39.945Z,99.90
2018-11-25T05:25:12.279Z,99.90
2018-11-25T05:27:40.527Z,99.90
2018-11-25T05:30:13.645Z,99.90
2018-11-25T05:32:41.817Z,99.90
2018-11-25T05:35:13.150Z,99.90
2018-11-25T05:37:41.411Z,99.90
2018-11-25T05:40:15.049Z,99.90
2018-11-25T05:42:43.290Z,99.90
2018-11-25T05:45:13.407Z,99.90
2018-11-25T05:47:41.677Z,99.90
2018-11-25T05:50:11.828Z,99.90
2018-11-25T05:52:40.015Z,99.90
2018-11-25T05:55:09.271Z,99.90
2018-11-25T05:57:37.448Z,99.90
2018-11-25T06:00:19.596Z,99.90
2018-11-25T06:02:47.750Z,99.90
2018-11-25T06:05:15.972Z,99.90
2018-11-25T06:07:44.114Z,99.90
2018-11-25T06:10:16.919Z,99.90
2018-11-25T06:12:45.068Z,99.90
2018-11-25T06:15:15.182Z,99.90
2018-11-25T06:17:43.360Z,99.90
2018-11-25T06:20:13.563Z,99.90
2018-11-25T06:22:41.752Z,99.90
2018-11-25T06:25:11.628Z,99.90
2018-11-25T06:27:39.802Z,99.90
2018-11-25T06:30:10.566Z,99.90
2018-11-25T06:32:38.791Z,99.90
2018-11-25T06:35:08.686Z,99.90
2018-11-25T06:37:36.894Z,99.90
2018-11-25T06:40:08.563Z,99.90
2018-11-25T06:42:36.746Z,99.90
2018-11-25T06:45:08.012Z,99.90
2018-11-25T06:47:36.184Z,99.90
2018-11-25T06:50:05.687Z,99.90
2018-11-25T06:52:33.858Z,99.90
2018-11-25T06:55:02.476Z,99.90
2018-11-25T06:57:30.648Z,99.90
2018-11-25T06:59:59.092Z,99.90
2018-11-25T07:02:27.299Z,99.90
2018-11-25T07:04:55.486Z,99.90
2018-11-25T07:07:23.666Z,99.90
2018-11-25T07:09:51.886Z,99.90
2018-11-25T07:12:20.103Z,99.90
2018-11-25T07:14:48.315Z,99.90
2018-11-25T07:17:16.619Z,99.90
2018-11-25T07:19:44.936Z,99.90
2018-11-25T07:22:13.094Z,99.90
2018-11-25T07:24:41.305Z,99.90
2018-11-25T07:27:09.496Z,99.90
2018-11-25T07:29:37.668Z,99.90
2018-11-25T07:32:05.993Z,99.90
2018-11-25T07:34:34.196Z,99.90
2018-11-25T07:37:02.387Z,99.90
2018-11-25T07:39:30.663Z,99.90
2018-11-25T07:41:58.835Z,99.90
2018-11-25T07:44:27.085Z,99.90
2018-11-25T07:46:55.356Z,99.90
2018-11-25T07:49:23.585Z,99.90
2018-11-25T07:51:51.753Z,99.90
2018-11-25T07:54:19.928Z,99.90
2018-11-25T07:56:48.114Z,99.90
2018-11-25T07:59:16.287Z,99.90
2018-11-25T08:01:44.530Z,99.90
2018-11-25T08:04:12.708Z,99.90
2018-11-25T08:06:40.867Z,99.90
2018-11-25T08:09:09.136Z,99.90
2018-11-25T08:11:37.282Z,99.90
2018-11-25T08:14:05.580Z,99.90
2018-11-25T08:16:33.825Z,99.90
2018-11-25T08:19:02.013Z,99.90
2018-11-25T08:21:30.167Z,99.90
2018-11-25T08:23:58.383Z,99.90
2018-11-25T08:26:26.548Z,99.90
2018-11-25T08:28:54.718Z,99.90
2018-11-25T08:31:22.929Z,99.90
2018-11-25T08:33:51.112Z,99.90
2018-11-25T08:36:19.293Z,99.90
2018-11-25T08:38:47.495Z,99.90
2018-11-25T08:41:15.691Z,99.90
2018-11-25T08:43:43.882Z,99.90
2018-11-25T08:46:12.097Z,99.90
2018-11-25T08:48:40.335Z,99.90
2018-11-25T08:51:08.520Z,99.90
2018-11-25T08:53:36.975Z,99.90
2018-11-25T08:56:05.907Z,99.90
2018-11-25T08:58:34.071Z,99.90
2018-11-25T09:01:02.232Z,99.90
2018-11-25T09:03:30.421Z,99.90
2018-11-25T09:05:58.563Z,99.90
2018-11-25T09:08:26.747Z,99.90
2018-11-25T09:10:54.916Z,99.90
2018-11-25T09:13:23.099Z,99.90
2018-11-25T09:15:51.300Z,99.90
2018-11-25T09:18:19.557Z,99.90
2018-11-25T09:20:47.771Z,99.90
2018-11-25T09:23:15.996Z,99.90
2018-11-25T09:25:44.163Z,99.90
2018-11-25T09:28:12.363Z,99.90
2018-11-25T09:30:40.541Z,99.90
2018-11-25T09:33:08.694Z,99.90
2018-11-25T09:35:36.865Z,99.90
2018-11-25T09:38:05.283Z,99.90
2018-11-25T09:40:33.434Z,99.90
2018-11-25T09:43:01.607Z,99.90
2018-11-25T09:45:29.795Z,99.90
2018-11-25T09:47:57.967Z,99.90
2018-11-25T09:50:26.139Z,99.90
2018-11-25T09:52:54.364Z,99.90
2018-11-25T09:55:23.595Z,99.90
2018-11-25T09:57:57.799Z,99.90
2018-11-25T10:00:30.086Z,99.90
2018-11-25T10:02:58.246Z,99.90
2018-11-25T10:05:26.483Z,99.90
2018-11-25T10:07:54.675Z,99.90
2018-11-25T10:10:23.712Z,99.90
2018-11-25T10:12:51.913Z,99.50
2018-11-25T10:15:22.083Z,98.90
2018-11-25T10:17:50.241Z,97.90
2018-11-25T10:20:20.914Z,96.90
2018-11-25T10:22:49.116Z,95.10
2018-11-25T10:25:17.643Z,93.30
2018-11-25T10:27:45.847Z,91.30
2018-11-25T10:30:18.075Z,89.00
2018-11-25T10:32:47.399Z,86.70
2018-11-25T10:35:15.583Z,85.10
2018-11-25T10:37:43.779Z,80.60
2018-11-25T10:40:16.858Z,76.50
2018-11-25T10:42:45.015Z,72.50
2018-11-25T10:45:15.051Z,68.40
2018-11-25T10:47:49.591Z,66.70
2018-11-25T10:50:18.786Z,66.10
2018-11-25T10:52:47.075Z,62.40
2018-11-25T10:55:16.465Z,59.40
2018-11-25T10:57:45.624Z,57.20
2018-11-25T11:00:25.290Z,55.00
2018-11-25T11:02:58.771Z,52.30
2018-11-25T11:05:32.570Z,48.90
2018-11-25T11:08:01.097Z,48.30
2018-11-25T11:10:29.685Z,48.40
2018-11-25T11:12:58.887Z,48.00
2018-11-25T11:15:27.460Z,47.40
2018-11-25T11:17:55.927Z,46.50
2018-11-25T11:20:24.692Z,45.70
2018-11-25T11:22:53.142Z,46.30
2018-11-25T11:25:21.612Z,45.60
2018-11-25T11:27:50.199Z,45.10
2018-11-25T11:30:18.990Z,45.60
2018-11-25T11:32:48.983Z,45.20
2018-11-25T11:35:17.274Z,45.80
2018-11-25T11:37:45.567Z,45.50
2018-11-25T11:40:15.847Z,46.90
2018-11-25T11:42:44.056Z,46.30
2018-11-25T11:45:13.676Z,47.50
2018-11-25T11:47:42.653Z,48.20
2018-11-25T11:50:12.516Z,48.10
2018-11-25T11:52:42.027Z,48.20
2018-11-25T11:55:12.606Z,49.30
2018-11-25T11:57:42.444Z,49.30
2018-11-25T12:00:16.352Z,49.50
2018-11-25T12:02:44.558Z,50.90
2018-11-25T12:05:12.736Z,51.30
2018-11-25T12:07:40.949Z,52.00
2018-11-25T12:10:11.246Z,51.80
2018-11-25T12:12:39.548Z,51.70
2018-11-25T12:15:16.607Z,52.40
2018-11-25T12:17:44.880Z,51.90
2018-11-25T12:20:13.081Z,51.50
2018-11-25T12:22:41.341Z,51.50
2018-11-25T12:25:11.443Z,51.60
2018-11-25T12:27:39.707Z,51.90
2018-11-25T12:30:11.457Z,51.80
2018-11-25T12:32:54.918Z,51.80
2018-11-25T12:35:23.135Z,51.60
2018-11-25T12:37:53.443Z,52.60
2018-11-25T12:40:27.851Z,52.80
2018-11-25T12:42:58.556Z,53.20
2018-11-25T12:45:26.819Z,52.90
2018-11-25T12:47:56.070Z,53.20
2018-11-25T12:50:25.456Z,53.20
2018-11-25T12:52:53.888Z,53.70
2018-11-25T12:55:23.572Z,53.60
2018-11-25T12:57:52.193Z,54.30
2018-11-25T13:00:32.149Z,54.50
2018-11-25T13:03:00.825Z,54.80
2018-11-25T13:05:32.109Z,54.90
2018-11-25T13:08:00.539Z,55.20
2018-11-25T13:10:28.821Z,55.00
2018-11-25T13:12:57.117Z,54.80
2018-11-25T13:15:25.693Z,55.50
2018-11-25T13:17:54.068Z,55.20
2018-11-25T13:20:22.450Z,55.10
2018-11-25T13:22:50.787Z,54.60
2018-11-25T13:25:19.279Z,54.70
2018-11-25T13:27:47.517Z,54.40
2018-11-25T13:30:20.123Z,54.20
2018-11-25T13:32:47.250Z,54.60
2018-11-25T13:35:16.055Z,54.30
2018-11-25T13:37:45.664Z,54.20
2018-11-25T13:40:14.964Z,53.40
2018-11-25T13:42:43.260Z,53.10
2018-11-25T13:45:11.631Z,52.80
2018-11-25T13:47:40.356Z,51.80
2018-11-25T13:50:10.673Z,51.30
2018-11-25T13:52:39.110Z,50.90
2018-11-25T13:55:24.813Z,50.60
2018-11-25T13:57:53.274Z,49.90
2018-11-25T14:00:25.426Z,49.50
2018-11-25T14:02:53.872Z,49.20
2018-11-25T14:05:22.091Z,48.70
2018-11-25T14:07:50.432Z,48.40
2018-11-25T14:10:24.477Z,48.00
2018-11-25T14:12:52.658Z,47.40
2018-11-25T14:15:20.828Z,46.70
2018-11-25T14:17:49.184Z,47.90
2018-11-25T14:20:17.398Z,51.00
2018-11-25T14:22:45.767Z,53.20
2018-11-25T14:25:16.289Z,56.10
2018-11-25T14:27:45.516Z,58.20
2018-11-25T14:30:15.566Z,60.60
2018-11-25T14:32:43.838Z,60.30
2018-11-25T14:35:13.918Z,56.70
2018-11-25T14:37:42.159Z,54.30
2018-11-25T14:40:16.463Z,53.60
2018-11-25T14:42:44.781Z,53.60
2018-11-25T14:45:14.674Z,54.40
2018-11-25T14:47:43.072Z,55.00
2018-11-25T14:50:14.596Z,56.10
2018-11-25T14:52:45.564Z,58.10
2018-11-25T14:55:14.624Z,60.10
2018-11-25T14:57:56.795Z,62.40
2018-11-25T15:03:25.235Z,66.70
2018-11-25T15:05:53.472Z,68.70
2018-11-25T15:08:23.490Z,70.40
2018-11-25T15:10:51.644Z,71.70
2018-11-25T15:13:19.850Z,72.40
2018-11-25T15:15:48.120Z,73.80
2018-11-25T15:18:16.282Z,74.90
2018-11-25T15:20:45.462Z,77.20
2018-11-25T15:23:14.700Z,77.80
2018-11-25T15:25:45.524Z,78.60
2018-11-25T15:28:13.883Z,79.50
2018-11-25T15:30:42.097Z,80.80
2018-11-25T15:33:10.275Z,81.80
2018-11-25T15:35:38.521Z,82.70
2018-11-25T15:38:11.282Z,83.70
2018-11-25T15:40:39.778Z,84.70
2018-11-25T15:43:08.899Z,86.00
2018-11-25T15:45:37.081Z,86.80
2018-11-25T15:48:09.256Z,87.60
2018-11-25T15:50:37.399Z,88.50
2018-11-25T15:53:07.024Z,89.30
2018-11-25T15:55:35.183Z,90.20
2018-11-25T15:58:03.412Z,90.70
2018-11-25T16:00:31.623Z,91.20
2018-11-25T16:02:59.794Z,91.60
2018-11-25T16:05:29.918Z,92.10
2018-11-25T16:07:58.089Z,92.60
2018-11-25T16:10:26.257Z,93.00
2018-11-25T16:12:54.437Z,93.50
2018-11-25T16:15:24.059Z,94.00
2018-11-25T16:17:52.227Z,94.50
2018-11-25T16:20:22.144Z,95.00
2018-11-25T16:22:52.762Z,95.30
2018-11-25T16:25:34.567Z,95.70
2018-11-25T16:28:07.946Z,96.00
2018-11-25T16:30:36.130Z,96.60
2018-11-25T16:33:04.359Z,97.00
2018-11-25T16:35:32.543Z,97.40
2018-11-25T16:38:00.749Z,97.70
2018-11-25T16:40:28.925Z,98.00
2018-11-25T16:42:57.068Z,98.30
2018-11-25T16:45:25.564Z,98.50
2018-11-25T16:47:54.029Z,99.10
2018-11-25T16:50:25.245Z,99.00
2018-11-25T16:52:50.458Z,99.20
2018-11-25T16:55:18.863Z,99.50
2018-11-25T16:57:47.232Z,99.50
2018-11-25T17:00:16.748Z,99.40
2018-11-25T17:02:45.029Z,99.40
2018-11-25T17:05:17.304Z,99.40
2018-11-25T17:07:46.605Z,99.50
2018-11-25T17:10:14.836Z,99.50
2018-11-25T17:12:43.003Z,99.50
2018-11-25T17:15:15.101Z,99.50
2018-11-25T17:17:43.381Z,99.50
2018-11-25T17:20:11.627Z,99.60
2018-11-25T17:22:40.063Z,99.70
2018-11-25T17:25:09.671Z,99.90
2018-11-25T17:27:37.846Z,99.90
2018-11-25T17:30:11.227Z,99.90
2018-11-25T17:32:39.429Z,99.90
2018-11-25T17:35:09.729Z,99.90
2018-11-25T17:37:37.955Z,99.90
2018-11-25T17:40:07.776Z,99.90
2018-11-25T17:42:36.046Z,99.90
2018-11-25T17:45:05.531Z,99.90
2018-11-25T17:47:34.401Z,99.90
2018-11-25T17:50:03.044Z,99.90
2018-11-25T17:52:31.540Z,99.90
2018-11-25T17:54:59.778Z,99.90
2018-11-25T17:57:28.077Z,99.90
2018-11-25T17:59:56.368Z,99.90
2018-11-25T18:02:24.760Z,99.90
2018-11-25T18:04:53.081Z,99.90
2018-11-25T18:07:21.402Z,99.90
2018-11-25T18:09:49.728Z,99.90
2018-11-25T18:12:17.936Z,99.90
2018-11-25T18:14:46.134Z,99.90
2018-11-25T18:17:14.460Z,99.90
2018-11-25T18:19:43.073Z,99.90
2018-11-25T18:22:15.075Z,99.90
2018-11-25T18:24:43.334Z,99.90
2018-11-25T18:27:12.049Z,99.90
2018-11-25T18:29:40.600Z,99.90
2018-11-25T18:32:08.842Z,99.90
2018-11-25T18:34:37.100Z,99.90
2018-11-25T18:37:05.766Z,99.90
2018-11-25T18:39:34.103Z,99.90
2018-11-25T18:42:05.213Z,99.90
2018-11-25T18:44:37.347Z,99.90
2018-11-25T18:47:06.159Z,99.90
2018-11-25T18:49:34.340Z,99.90
2018-11-25T18:52:05.290Z,99.90
2018-11-25T18:54:30.692Z,99.90
2018-11-25T18:56:58.875Z,99.90
2018-11-25T18:59:27.592Z,99.90
2018-11-25T19:02:00.740Z,99.90
2018-11-25T19:04:28.903Z,99.90
2018-11-25T19:06:57.083Z,99.90
2018-11-25T19:09:25.211Z,99.90
2018-11-25T19:11:53.358Z,99.90
2018-11-25T19:14:21.491Z,99.90
2018-11-25T19:16:49.696Z,99.90
2018-11-25T19:19:17.871Z,99.90
2018-11-25T19:21:45.999Z,99.90
2018-11-25T19:24:14.133Z,99.90
2018-11-25T19:26:42.278Z,99.90
2018-11-25T19:29:10.441Z,99.90
2018-11-25T19:31:38.559Z,99.90
2018-11-25T19:34:06.707Z,99.90
2018-11-25T19:36:34.819Z,99.90
2018-11-25T19:39:02.964Z,99.90
2018-11-25T19:41:31.090Z,99.90
2018-11-25T19:43:59.195Z,99.90
2018-11-25T19:46:27.343Z,99.90
2018-11-25T19:48:55.474Z,99.90
2018-11-25T19:51:23.581Z,99.90
2018-11-25T19:53:51.751Z,99.90
2018-11-25T19:56:19.953Z,99.90
2018-11-25T19:58:48.086Z,99.90
2018-11-25T20:01:16.190Z,99.90
2018-11-25T20:03:44.323Z,99.90
2018-11-25T20:06:12.442Z,99.90
2018-11-25T20:08:40.574Z,99.90
2018-11-25T20:11:08.705Z,99.90
2018-11-25T20:13:36.922Z,99.90
2018-11-25T20:16:10.571Z,99.90
2018-11-25T20:18:38.739Z,99.90
2018-11-25T20:21:12.286Z,99.90
2018-11-25T20:23:40.426Z,99.90
2018-11-25T20:26:08.596Z,99.90
2018-11-25T20:28:36.735Z,99.90
2018-11-25T20:31:05.418Z,99.90
2018-11-25T20:33:38.843Z,99.90
2018-11-25T20:36:06.967Z,99.90
2018-11-25T20:38:40.467Z,99.90
2018-11-25T20:41:08.616Z,99.90
2018-11-25T20:43:36.755Z,99.90
2018-11-25T20:46:10.457Z,99.90
2018-11-25T20:48:38.595Z,99.90
2018-11-25T20:51:06.718Z,99.90
2018-11-25T20:53:40.058Z,99.90
2018-11-25T20:56:08.168Z,99.90
2018-11-25T20:58:36.305Z,99.90
2018-11-25T21:01:04.490Z,99.90
2018-11-25T21:03:32.670Z,99.90
2018-11-25T21:06:00.781Z,99.90
2018-11-25T21:08:28.927Z,99.90
2018-11-25T21:10:57.102Z,99.90
2018-11-25T21:13:25.275Z,99.90
2018-11-25T21:15:53.446Z,99.90
2018-11-25T21:18:21.670Z,99.90
2018-11-25T21:20:51.286Z,99.90
2018-11-25T21:23:17.998Z,99.90
2018-11-25T21:25:46.170Z,99.90
2018-11-25T21:28:14.331Z,99.90
2018-11-25T21:30:42.547Z,99.90
2018-11-25T21:33:12.572Z,99.90
2018-11-25T21:35:41.027Z,99.90
2018-11-25T21:38:09.267Z,99.90
2018-11-25T21:40:37.598Z,99.90
2018-11-25T21:43:05.884Z,99.90
2018-11-25T21:45:34.086Z,99.90
2018-11-25T21:48:02.289Z,99.90
2018-11-25T21:50:30.529Z,99.90
2018-11-25T21:52:58.714Z,99.90
2018-11-25T21:55:26.934Z,99.90
2018-11-25T21:57:55.143Z,99.90
2018-11-25T22:00:25.847Z,99.90
2018-11-25T22:02:54.522Z,99.90
2018-11-25T22:05:25.019Z,99.90
2018-11-25T22:07:55.369Z,99.90
2018-11-25T22:10:23.988Z,99.90
2018-11-25T22:12:53.640Z,99.90
2018-11-25T22:15:23.264Z,99.90
2018-11-25T22:17:51.491Z,99.90
2018-11-25T22:20:19.722Z,99.90
2018-11-25T22:22:47.985Z,99.90
2018-11-25T22:25:17.568Z,99.90
2018-11-25T22:27:45.831Z,99.90
2018-11-25T22:30:17.052Z,99.90
2018-11-25T22:32:45.233Z,99.90
2018-11-25T22:35:16.265Z,99.90
2018-11-25T22:37:44.512Z,99.90
2018-11-25T22:40:17.219Z,99.90
2018-11-25T22:42:46.375Z,99.90
2018-11-25T22:45:19.212Z,99.90
2018-11-25T22:47:47.637Z,99.90
2018-11-25T22:50:17.296Z,99.90
2018-11-25T22:52:45.637Z,99.90
2018-11-25T22:55:15.191Z,99.90
2018-11-25T22:57:43.508Z,99.90
2018-11-25T23:00:28.528Z,99.90
2018-11-25T23:02:56.746Z,99.90
2018-11-25T23:05:36.303Z,99.90
2018-11-25T23:08:04.492Z,99.90
2018-11-25T23:10:32.707Z,99.90
2018-11-25T23:13:01.106Z,99.90
2018-11-25T23:15:29.414Z,99.90
2018-11-25T23:17:57.568Z,99.90
2018-11-25T23:20:25.748Z,99.90
2018-11-25T23:22:53.949Z,99.90
2018-11-25T23:25:22.117Z,99.90
2018-11-25T23:27:50.255Z,99.90
2018-11-25T23:30:18.478Z,99.90
2018-11-25T23:32:46.642Z,99.90
2018-11-25T23:35:18.171Z,99.90
2018-11-25T23:37:46.312Z,99.90
2018-11-25T23:40:14.439Z,99.90
2018-11-25T23:42:42.643Z,99.90
2018-11-25T23:45:14.603Z,99.90
2018-11-25T23:47:42.726Z,99.90
2018-11-25T23:50:11.784Z,99.90
2018-11-25T23:52:40.111Z,99.90
2018-11-25T23:55:10.601Z,99.90
2018-11-25T23:57:38.864Z,99.90
